sensor_id;sensor_type;location;lat;lon;timestamp;P1;durP1;ratioP1;P2;durP2;ratioP2
18580;SDS011;9420;50.876;7.012;2023-06-26T00:02:14;7.87;;;7.07;;
18580;SDS011;9420;50.876;7.012;2023-06-26T00:04:42;7.83;;;6.47;;
18580;SDS011;9420;50.876;7.012;2023-06-26T00:07:09;8.73;;;6.33;;
18580;SDS011;9420;50.876;7.012;2023-06-26T00:09:35;10.33;;;6.70;;
18580;SDS011;9420;50.876;7.012;2023-06-26T00:12:02;8.10;;;6.83;;
18580;SDS011;9420;50.876;7.012;2023-06-26T00:14:30;11.90;;;7.83;;
18580;SDS011;9420;50.876;7.012;2023-06-26T00:16:57;7.40;;;6.60;;
18580;SDS011;9420;50.876;7.012;2023-06-26T00:19:24;9.07;;;7.00;;
18580;SDS011;9420;50.876;7.012;2023-06-26T00:21:51;7.80;;;6.73;;
18580;SDS011;9420;50.876;7.012;2023-06-26T00:24:17;9.87;;;7.03;;
18580;SDS011;9420;50.876;7.012;2023-06-26T00:26:46;8.07;;;5.93;;
18580;SDS011;9420;50.876;7.012;2023-06-26T00:29:13;7.40;;;6.30;;
18580;SDS011;9420;50.876;7.012;2023-06-26T00:31:42;11.27;;;6.50;;
18580;SDS011;9420;50.876;7.012;2023-06-26T00:34:08;9.97;;;6.17;;
18580;SDS011;9420;50.876;7.012;2023-06-26T00:36:35;7.57;;;5.70;;
18580;SDS011;9420;50.876;7.012;2023-06-26T00:39:01;8.77;;;6.63;;
18580;SDS011;9420;50.876;7.012;2023-06-26T00:41:29;9.07;;;6.70;;
18580;SDS011;9420;50.876;7.012;2023-06-26T00:43:55;7.30;;;6.57;;
18580;SDS011;9420;50.876;7.012;2023-06-26T00:46:22;7.37;;;6.20;;
18580;SDS011;9420;50.876;7.012;2023-06-26T00:48:50;10.87;;;6.70;;
18580;SDS011;9420;50.876;7.012;2023-06-26T00:51:18;7.50;;;6.30;;
18580;SDS011;9420;50.876;7.012;2023-06-26T00:53:46;8.43;;;6.97;;
18580;SDS011;9420;50.876;7.012;2023-06-26T00:56:14;6.33;;;5.63;;
18580;SDS011;9420;50.876;7.012;2023-06-26T00:58:41;9.73;;;6.60;;
18580;SDS011;9420;50.876;7.012;2023-06-26T01:01:08;6.90;;;6.20;;
18580;SDS011;9420;50.876;7.012;2023-06-26T01:03:42;7.73;;;5.93;;
18580;SDS011;9420;50.876;7.012;2023-06-26T01:06:11;8.37;;;6.43;;
18580;SDS011;9420;50.876;7.012;2023-06-26T01:08:41;6.40;;;5.63;;
18580;SDS011;9420;50.876;7.012;2023-06-26T01:11:08;10.47;;;6.97;;
18580;SDS011;9420;50.876;7.012;2023-06-26T01:13:35;8.83;;;6.33;;
18580;SDS011;9420;50.876;7.012;2023-06-26T01:16:03;9.30;;;6.80;;
18580;SDS011;9420;50.876;7.012;2023-06-26T01:18:31;6.60;;;5.97;;
18580;SDS011;9420;50.876;7.012;2023-06-26T01:20:58;7.50;;;6.60;;
18580;SDS011;9420;50.876;7.012;2023-06-26T01:23:30;6.70;;;5.97;;
18580;SDS011;9420;50.876;7.012;2023-06-26T01:26:11;8.53;;;7.13;;
18580;SDS011;9420;50.876;7.012;2023-06-26T01:28:41;7.83;;;6.70;;
18580;SDS011;9420;50.876;7.012;2023-06-26T01:31:09;8.70;;;7.27;;
18580;SDS011;9420;50.876;7.012;2023-06-26T01:33:37;7.17;;;6.03;;
18580;SDS011;9420;50.876;7.012;2023-06-26T01:36:05;7.80;;;6.40;;
18580;SDS011;9420;50.876;7.012;2023-06-26T01:38:32;7.87;;;6.00;;
18580;SDS011;9420;50.876;7.012;2023-06-26T01:40:59;8.80;;;6.30;;
18580;SDS011;9420;50.876;7.012;2023-06-26T01:43:29;8.23;;;6.93;;
18580;SDS011;9420;50.876;7.012;2023-06-26T01:46:06;9.20;;;6.47;;
18580;SDS011;9420;50.876;7.012;2023-06-26T01:48:38;10.37;;;6.67;;
18580;SDS011;9420;50.876;7.012;2023-06-26T01:51:12;8.77;;;7.60;;
18580;SDS011;9420;50.876;7.012;2023-06-26T01:53:45;9.40;;;6.47;;
18580;SDS011;9420;50.876;7.012;2023-06-26T01:56:16;9.27;;;7.10;;
18580;SDS011;9420;50.876;7.012;2023-06-26T01:58:46;7.97;;;6.90;;
18580;SDS011;9420;50.876;7.012;2023-06-26T02:01:14;8.40;;;7.37;;
18580;SDS011;9420;50.876;7.012;2023-06-26T02:03:41;9.50;;;7.27;;
18580;SDS011;9420;50.876;7.012;2023-06-26T02:06:08;8.40;;;7.50;;
18580;SDS011;9420;50.876;7.012;2023-06-26T02:08:34;8.20;;;6.80;;
18580;SDS011;9420;50.876;7.012;2023-06-26T02:11:02;7.30;;;6.53;;
18580;SDS011;9420;50.876;7.012;2023-06-26T02:13:28;8.00;;;6.53;;
18580;SDS011;9420;50.876;7.012;2023-06-26T02:15:56;16.13;;;6.93;;
18580;SDS011;9420;50.876;7.012;2023-06-26T02:18:23;9.77;;;6.70;;
18580;SDS011;9420;50.876;7.012;2023-06-26T02:20:50;10.57;;;7.77;;
18580;SDS011;9420;50.876;7.012;2023-06-26T02:23:16;10.30;;;7.87;;
18580;SDS011;9420;50.876;7.012;2023-06-26T02:25:43;11.40;;;7.43;;
18580;SDS011;9420;50.876;7.012;2023-06-26T02:28:10;9.97;;;7.80;;
18580;SDS011;9420;50.876;7.012;2023-06-26T02:30:36;12.83;;;6.97;;
18580;SDS011;9420;50.876;7.012;2023-06-26T02:33:04;8.80;;;7.67;;
18580;SDS011;9420;50.876;7.012;2023-06-26T02:35:31;13.07;;;7.17;;
18580;SDS011;9420;50.876;7.012;2023-06-26T02:37:58;8.53;;;7.67;;
18580;SDS011;9420;50.876;7.012;2023-06-26T02:40:25;10.90;;;8.00;;
18580;SDS011;9420;50.876;7.012;2023-06-26T02:42:52;10.07;;;7.90;;
18580;SDS011;9420;50.876;7.012;2023-06-26T02:45:18;10.10;;;7.40;;
18580;SDS011;9420;50.876;7.012;2023-06-26T02:47:45;9.73;;;7.30;;
18580;SDS011;9420;50.876;7.012;2023-06-26T02:50:13;7.87;;;7.03;;
18580;SDS011;9420;50.876;7.012;2023-06-26T02:52:40;11.20;;;7.20;;
18580;SDS011;9420;50.876;7.012;2023-06-26T02:55:06;9.13;;;6.77;;
18580;SDS011;9420;50.876;7.012;2023-06-26T02:57:33;9.63;;;7.07;;
18580;SDS011;9420;50.876;7.012;2023-06-26T03:00:00;10.60;;;7.33;;
18580;SDS011;9420;50.876;7.012;2023-06-26T03:02:26;9.50;;;7.60;;
18580;SDS011;9420;50.876;7.012;2023-06-26T03:04:53;8.40;;;6.63;;
18580;SDS011;9420;50.876;7.012;2023-06-26T03:07:21;9.77;;;7.40;;
18580;SDS011;9420;50.876;7.012;2023-06-26T03:09:47;9.27;;;6.83;;
18580;SDS011;9420;50.876;7.012;2023-06-26T03:12:14;9.40;;;7.37;;
18580;SDS011;9420;50.876;7.012;2023-06-26T03:14:41;16.13;;;7.20;;
18580;SDS011;9420;50.876;7.012;2023-06-26T03:17:08;9.33;;;6.83;;
18580;SDS011;9420;50.876;7.012;2023-06-26T03:19:34;10.07;;;7.17;;
18580;SDS011;9420;50.876;7.012;2023-06-26T03:22:01;10.33;;;7.13;;
18580;SDS011;9420;50.876;7.012;2023-06-26T03:24:30;9.03;;;7.60;;
18580;SDS011;9420;50.876;7.012;2023-06-26T03:26:56;9.63;;;7.07;;
18580;SDS011;9420;50.876;7.012;2023-06-26T03:29:23;9.63;;;7.57;;
18580;SDS011;9420;50.876;7.012;2023-06-26T03:31:49;11.37;;;7.47;;
18580;SDS011;9420;50.876;7.012;2023-06-26T03:34:16;11.20;;;7.43;;
18580;SDS011;9420;50.876;7.012;2023-06-26T03:36:43;12.37;;;7.00;;
18580;SDS011;9420;50.876;7.012;2023-06-26T03:39:09;12.77;;;7.97;;
18580;SDS011;9420;50.876;7.012;2023-06-26T03:41:37;10.13;;;6.90;;
18580;SDS011;9420;50.876;7.012;2023-06-26T03:44:04;9.70;;;7.43;;
18580;SDS011;9420;50.876;7.012;2023-06-26T03:46:31;9.77;;;7.30;;
18580;SDS011;9420;50.876;7.012;2023-06-26T03:48:57;14.73;;;10.90;;
18580;SDS011;9420;50.876;7.012;2023-06-26T03:51:24;13.97;;;9.10;;
18580;SDS011;9420;50.876;7.012;2023-06-26T03:53:50;13.67;;;8.60;;
18580;SDS011;9420;50.876;7.012;2023-06-26T03:56:17;13.10;;;10.20;;
18580;SDS011;9420;50.876;7.012;2023-06-26T03:58:45;15.70;;;9.53;;
18580;SDS011;9420;50.876;7.012;2023-06-26T04:01:11;10.63;;;7.33;;
18580;SDS011;9420;50.876;7.012;2023-06-26T04:03:38;11.33;;;7.00;;
18580;SDS011;9420;50.876;7.012;2023-06-26T04:06:05;6.80;;;5.77;;
18580;SDS011;9420;50.876;7.012;2023-06-26T04:08:32;8.17;;;5.57;;
18580;SDS011;9420;50.876;7.012;2023-06-26T04:10:58;7.83;;;5.83;;
18580;SDS011;9420;50.876;7.012;2023-06-26T04:13:25;6.13;;;5.33;;
18580;SDS011;9420;50.876;7.012;2023-06-26T04:15:53;6.40;;;5.43;;
18580;SDS011;9420;50.876;7.012;2023-06-26T04:18:19;6.13;;;4.43;;
18580;SDS011;9420;50.876;7.012;2023-06-26T04:23:32;7.30;;;5.57;;
18580;SDS011;9420;50.876;7.012;2023-06-26T04:25:58;9.00;;;5.80;;
18580;SDS011;9420;50.876;7.012;2023-06-26T04:28:25;6.93;;;5.37;;
18580;SDS011;9420;50.876;7.012;2023-06-26T04:30:53;6.40;;;5.20;;
18580;SDS011;9420;50.876;7.012;2023-06-26T04:33:20;7.87;;;5.67;;
18580;SDS011;9420;50.876;7.012;2023-06-26T04:35:47;6.27;;;5.07;;
18580;SDS011;9420;50.876;7.012;2023-06-26T04:38:14;10.93;;;5.90;;
18580;SDS011;9420;50.876;7.012;2023-06-26T04:40:41;10.13;;;5.90;;
18580;SDS011;9420;50.876;7.012;2023-06-26T04:43:07;11.27;;;5.67;;
18580;SDS011;9420;50.876;7.012;2023-06-26T04:45:34;6.63;;;5.83;;
18580;SDS011;9420;50.876;7.012;2023-06-26T04:48:03;7.63;;;5.70;;
18580;SDS011;9420;50.876;7.012;2023-06-26T04:50:30;7.57;;;5.67;;
18580;SDS011;9420;50.876;7.012;2023-06-26T04:52:58;10.73;;;5.90;;
18580;SDS011;9420;50.876;7.012;2023-06-26T04:55:25;9.67;;;5.87;;
18580;SDS011;9420;50.876;7.012;2023-06-26T04:57:51;11.03;;;6.43;;
18580;SDS011;9420;50.876;7.012;2023-06-26T05:00:18;7.03;;;5.30;;
18580;SDS011;9420;50.876;7.012;2023-06-26T05:02:45;8.53;;;6.10;;
18580;SDS011;9420;50.876;7.012;2023-06-26T05:05:13;7.47;;;5.00;;
18580;SDS011;9420;50.876;7.012;2023-06-26T05:07:40;14.37;;;5.53;;
18580;SDS011;9420;50.876;7.012;2023-06-26T05:10:07;8.77;;;5.77;;
18580;SDS011;9420;50.876;7.012;2023-06-26T05:12:34;6.90;;;5.30;;
18580;SDS011;9420;50.876;7.012;2023-06-26T05:15:01;5.63;;;5.00;;
18580;SDS011;9420;50.876;7.012;2023-06-26T05:17:28;6.63;;;5.50;;
18580;SDS011;9420;50.876;7.012;2023-06-26T05:19:54;9.53;;;5.90;;
18580;SDS011;9420;50.876;7.012;2023-06-26T05:22:23;7.77;;;5.27;;
18580;SDS011;9420;50.876;7.012;2023-06-26T05:24:50;8.13;;;5.60;;
18580;SDS011;9420;50.876;7.012;2023-06-26T05:27:24;7.83;;;4.87;;
18580;SDS011;9420;50.876;7.012;2023-06-26T05:29:51;7.77;;;5.40;;
18580;SDS011;9420;50.876;7.012;2023-06-26T05:32:18;5.77;;;4.67;;
18580;SDS011;9420;50.876;7.012;2023-06-26T05:34:45;7.67;;;4.80;;
18580;SDS011;9420;50.876;7.012;2023-06-26T05:37:14;11.83;;;4.57;;
18580;SDS011;9420;50.876;7.012;2023-06-26T05:39:48;8.90;;;4.67;;
18580;SDS011;9420;50.876;7.012;2023-06-26T05:42:16;10.17;;;5.80;;
18580;SDS011;9420;50.876;7.012;2023-06-26T05:44:43;6.73;;;4.40;;
18580;SDS011;9420;50.876;7.012;2023-06-26T05:47:10;6.53;;;4.33;;
18580;SDS011;9420;50.876;7.012;2023-06-26T05:49:37;8.60;;;4.43;;
18580;SDS011;9420;50.876;7.012;2023-06-26T05:52:04;9.67;;;4.70;;
18580;SDS011;9420;50.876;7.012;2023-06-26T05:54:31;6.67;;;4.43;;
18580;SDS011;9420;50.876;7.012;2023-06-26T05:57:00;4.97;;;3.20;;
18580;SDS011;9420;50.876;7.012;2023-06-26T05:59:28;7.73;;;4.17;;
18580;SDS011;9420;50.876;7.012;2023-06-26T06:01:57;5.67;;;4.70;;
18580;SDS011;9420;50.876;7.012;2023-06-26T06:04:23;7.07;;;4.57;;
18580;SDS011;9420;50.876;7.012;2023-06-26T06:06:50;10.40;;;4.67;;
18580;SDS011;9420;50.876;7.012;2023-06-26T06:09:17;7.47;;;4.00;;
18580;SDS011;9420;50.876;7.012;2023-06-26T06:11:44;5.40;;;3.97;;
18580;SDS011;9420;50.876;7.012;2023-06-26T06:14:12;7.83;;;4.37;;
18580;SDS011;9420;50.876;7.012;2023-06-26T06:16:39;7.47;;;4.67;;
18580;SDS011;9420;50.876;7.012;2023-06-26T06:19:06;6.97;;;3.97;;
18580;SDS011;9420;50.876;7.012;2023-06-26T06:21:36;8.97;;;4.23;;
18580;SDS011;9420;50.876;7.012;2023-06-26T06:24:02;10.53;;;4.73;;
18580;SDS011;9420;50.876;7.012;2023-06-26T06:26:29;13.97;;;4.53;;
18580;SDS011;9420;50.876;7.012;2023-06-26T06:28:56;11.87;;;4.43;;
18580;SDS011;9420;50.876;7.012;2023-06-26T06:31:24;8.93;;;4.03;;
18580;SDS011;9420;50.876;7.012;2023-06-26T06:33:53;11.00;;;5.23;;
18580;SDS011;9420;50.876;7.012;2023-06-26T06:36:19;11.07;;;3.97;;
18580;SDS011;9420;50.876;7.012;2023-06-26T06:38:46;5.80;;;3.87;;
18580;SDS011;9420;50.876;7.012;2023-06-26T06:41:13;10.13;;;4.07;;
18580;SDS011;9420;50.876;7.012;2023-06-26T06:43:40;5.87;;;3.67;;
18580;SDS011;9420;50.876;7.012;2023-06-26T06:46:07;9.33;;;4.50;;
18580;SDS011;9420;50.876;7.012;2023-06-26T06:48:36;8.03;;;4.60;;
18580;SDS011;9420;50.876;7.012;2023-06-26T06:51:02;14.50;;;4.23;;
18580;SDS011;9420;50.876;7.012;2023-06-26T06:53:30;7.83;;;4.37;;
18580;SDS011;9420;50.876;7.012;2023-06-26T06:55:57;8.43;;;4.47;;
18580;SDS011;9420;50.876;7.012;2023-06-26T06:58:23;12.33;;;3.80;;
18580;SDS011;9420;50.876;7.012;2023-06-26T07:00:50;9.60;;;4.23;;
18580;SDS011;9420;50.876;7.012;2023-06-26T07:03:16;8.17;;;3.73;;
18580;SDS011;9420;50.876;7.012;2023-06-26T07:05:44;8.13;;;4.03;;
18580;SDS011;9420;50.876;7.012;2023-06-26T07:08:11;9.53;;;4.20;;
18580;SDS011;9420;50.876;7.012;2023-06-26T07:10:38;9.10;;;4.53;;
18580;SDS011;9420;50.876;7.012;2023-06-26T07:13:04;12.80;;;3.87;;
18580;SDS011;9420;50.876;7.012;2023-06-26T07:15:33;7.30;;;3.70;;
18580;SDS011;9420;50.876;7.012;2023-06-26T07:18:00;9.57;;;3.77;;
18580;SDS011;9420;50.876;7.012;2023-06-26T07:20:26;8.83;;;3.97;;
18580;SDS011;9420;50.876;7.012;2023-06-26T07:22:54;10.67;;;4.23;;
18580;SDS011;9420;50.876;7.012;2023-06-26T07:25:21;10.90;;;4.70;;
18580;SDS011;9420;50.876;7.012;2023-06-26T07:27:48;9.00;;;4.10;;
18580;SDS011;9420;50.876;7.012;2023-06-26T07:30:14;8.03;;;4.80;;
18580;SDS011;9420;50.876;7.012;2023-06-26T07:32:41;8.20;;;3.77;;
18580;SDS011;9420;50.876;7.012;2023-06-26T07:35:11;14.23;;;4.03;;
18580;SDS011;9420;50.876;7.012;2023-06-26T07:37:38;8.67;;;4.80;;
18580;SDS011;9420;50.876;7.012;2023-06-26T07:40:08;8.17;;;4.17;;
18580;SDS011;9420;50.876;7.012;2023-06-26T07:42:37;13.03;;;5.30;;
18580;SDS011;9420;50.876;7.012;2023-06-26T07:45:05;9.43;;;4.60;;
18580;SDS011;9420;50.876;7.012;2023-06-26T07:47:35;13.47;;;5.10;;
18580;SDS011;9420;50.876;7.012;2023-06-26T07:50:04;9.13;;;5.07;;
18580;SDS011;9420;50.876;7.012;2023-06-26T07:52:31;8.67;;;5.20;;
18580;SDS011;9420;50.876;7.012;2023-06-26T07:54:58;10.00;;;5.40;;
18580;SDS011;9420;50.876;7.012;2023-06-26T07:57:30;12.57;;;5.17;;
18580;SDS011;9420;50.876;7.012;2023-06-26T07:59:57;9.07;;;5.43;;
18580;SDS011;9420;50.876;7.012;2023-06-26T08:02:24;9.17;;;4.90;;
18580;SDS011;9420;50.876;7.012;2023-06-26T08:04:50;10.70;;;5.53;;
18580;SDS011;9420;50.876;7.012;2023-06-26T08:07:17;14.23;;;5.07;;
18580;SDS011;9420;50.876;7.012;2023-06-26T08:09:43;7.77;;;4.97;;
18580;SDS011;9420;50.876;7.012;2023-06-26T08:12:10;7.77;;;4.90;;
18580;SDS011;9420;50.876;7.012;2023-06-26T08:14:38;6.90;;;4.23;;
18580;SDS011;9420;50.876;7.012;2023-06-26T08:17:05;9.13;;;4.90;;
18580;SDS011;9420;50.876;7.012;2023-06-26T08:19:31;11.93;;;5.30;;
18580;SDS011;9420;50.876;7.012;2023-06-26T08:21:58;8.50;;;4.57;;
18580;SDS011;9420;50.876;7.012;2023-06-26T08:24:24;7.00;;;4.57;;
18580;SDS011;9420;50.876;7.012;2023-06-26T08:26:51;11.33;;;5.17;;
18580;SDS011;9420;50.876;7.012;2023-06-26T08:29:17;12.77;;;4.57;;
18580;SDS011;9420;50.876;7.012;2023-06-26T08:31:45;13.73;;;4.77;;
18580;SDS011;9420;50.876;7.012;2023-06-26T08:34:12;13.37;;;4.20;;
18580;SDS011;9420;50.876;7.012;2023-06-26T08:36:39;6.63;;;4.17;;
18580;SDS011;9420;50.876;7.012;2023-06-26T08:39:05;11.53;;;4.07;;
18580;SDS011;9420;50.876;7.012;2023-06-26T08:41:33;9.67;;;4.33;;
18580;SDS011;9420;50.876;7.012;2023-06-26T08:44:00;11.83;;;4.40;;
18580;SDS011;9420;50.876;7.012;2023-06-26T08:46:28;15.03;;;4.63;;
18580;SDS011;9420;50.876;7.012;2023-06-26T08:48:57;7.67;;;3.97;;
18580;SDS011;9420;50.876;7.012;2023-06-26T08:51:28;10.93;;;4.00;;
18580;SDS011;9420;50.876;7.012;2023-06-26T08:53:56;8.47;;;4.50;;
18580;SDS011;9420;50.876;7.012;2023-06-26T08:56:24;8.83;;;4.33;;
18580;SDS011;9420;50.876;7.012;2023-06-26T08:58:52;7.77;;;4.27;;
18580;SDS011;9420;50.876;7.012;2023-06-26T09:01:19;8.57;;;3.57;;
18580;SDS011;9420;50.876;7.012;2023-06-26T09:03:46;8.53;;;4.83;;
18580;SDS011;9420;50.876;7.012;2023-06-26T09:06:14;10.53;;;4.13;;
18580;SDS011;9420;50.876;7.012;2023-06-26T09:08:43;13.67;;;4.80;;
18580;SDS011;9420;50.876;7.012;2023-06-26T09:11:09;11.23;;;4.03;;
18580;SDS011;9420;50.876;7.012;2023-06-26T09:13:36;9.37;;;4.10;;
18580;SDS011;9420;50.876;7.012;2023-06-26T09:16:04;14.23;;;3.83;;
18580;SDS011;9420;50.876;7.012;2023-06-26T09:18:33;16.10;;;4.53;;
18580;SDS011;9420;50.876;7.012;2023-06-26T09:21:00;10.13;;;3.70;;
18580;SDS011;9420;50.876;7.012;2023-06-26T09:23:33;14.70;;;4.13;;
18580;SDS011;9420;50.876;7.012;2023-06-26T09:26:01;8.87;;;3.77;;
18580;SDS011;9420;50.876;7.012;2023-06-26T09:28:29;10.23;;;4.33;;
18580;SDS011;9420;50.876;7.012;2023-06-26T09:30:59;8.67;;;3.57;;
18580;SDS011;9420;50.876;7.012;2023-06-26T09:33:27;12.13;;;3.80;;
18580;SDS011;9420;50.876;7.012;2023-06-26T09:35:53;5.37;;;3.77;;
18580;SDS011;9420;50.876;7.012;2023-06-26T09:38:20;9.37;;;4.47;;
18580;SDS011;9420;50.876;7.012;2023-06-26T09:40:48;6.77;;;3.90;;
18580;SDS011;9420;50.876;7.012;2023-06-26T09:43:14;8.17;;;3.57;;
18580;SDS011;9420;50.876;7.012;2023-06-26T09:45:44;8.80;;;3.73;;
18580;SDS011;9420;50.876;7.012;2023-06-26T09:48:11;5.87;;;3.50;;
18580;SDS011;9420;50.876;7.012;2023-06-26T09:50:42;10.53;;;3.23;;
18580;SDS011;9420;50.876;7.012;2023-06-26T09:53:09;13.97;;;3.53;;
18580;SDS011;9420;50.876;7.012;2023-06-26T09:55:36;7.70;;;2.90;;
18580;SDS011;9420;50.876;7.012;2023-06-26T09:58:04;9.13;;;3.25;;
18580;SDS011;9420;50.876;7.012;2023-06-26T10:00:32;9.07;;;3.80;;
18580;SDS011;9420;50.876;7.012;2023-06-26T10:02:59;13.73;;;3.80;;
18580;SDS011;9420;50.876;7.012;2023-06-26T10:05:26;6.67;;;3.03;;
18580;SDS011;9420;50.876;7.012;2023-06-26T10:07:52;6.10;;;3.10;;
18580;SDS011;9420;50.876;7.012;2023-06-26T10:10:21;6.40;;;2.07;;
18580;SDS011;9420;50.876;7.012;2023-06-26T10:12:51;8.47;;;2.73;;
18580;SDS011;9420;50.876;7.012;2023-06-26T10:15:23;14.53;;;3.70;;
18580;SDS011;9420;50.876;7.012;2023-06-26T10:17:50;7.47;;;3.23;;
18580;SDS011;9420;50.876;7.012;2023-06-26T10:20:20;9.67;;;3.93;;
18580;SDS011;9420;50.876;7.012;2023-06-26T10:22:47;9.93;;;3.93;;
18580;SDS011;9420;50.876;7.012;2023-06-26T10:25:16;8.67;;;3.23;;
18580;SDS011;9420;50.876;7.012;2023-06-26T10:27:47;7.20;;;2.47;;
18580;SDS011;9420;50.876;7.012;2023-06-26T10:30:18;11.70;;;3.40;;
18580;SDS011;9420;50.876;7.012;2023-06-26T10:32:50;10.60;;;3.13;;
18580;SDS011;9420;50.876;7.012;2023-06-26T10:35:17;5.63;;;2.57;;
18580;SDS011;9420;50.876;7.012;2023-06-26T10:37:44;10.83;;;3.80;;
18580;SDS011;9420;50.876;7.012;2023-06-26T10:40:12;10.73;;;3.77;;
18580;SDS011;9420;50.876;7.012;2023-06-26T10:42:40;10.30;;;3.20;;
18580;SDS011;9420;50.876;7.012;2023-06-26T10:45:13;8.43;;;3.17;;
18580;SDS011;9420;50.876;7.012;2023-06-26T10:47:41;9.53;;;2.17;;
18580;SDS011;9420;50.876;7.012;2023-06-26T10:50:20;10.47;;;3.07;;
18580;SDS011;9420;50.876;7.012;2023-06-26T10:55:34;4.45;;;2.10;;
18580;SDS011;9420;50.876;7.012;2023-06-26T10:58:01;4.75;;;2.75;;
18580;SDS011;9420;50.876;7.012;2023-06-26T11:00:28;9.73;;;2.72;;
18580;SDS011;9420;50.876;7.012;2023-06-26T11:02:54;9.13;;;3.00;;
18580;SDS011;9420;50.876;7.012;2023-06-26T11:05:25;6.50;;;2.03;;
18580;SDS011;9420;50.876;7.012;2023-06-26T11:08:02;4.72;;;2.10;;
18580;SDS011;9420;50.876;7.012;2023-06-26T11:10:29;8.68;;;2.88;;
18580;SDS011;9420;50.876;7.012;2023-06-26T11:13:13;6.85;;;2.78;;
18580;SDS011;9420;50.876;7.012;2023-06-26T11:15:42;7.60;;;2.35;;
18580;SDS011;9420;50.876;7.012;2023-06-26T11:18:09;7.57;;;2.60;;
18580;SDS011;9420;50.876;7.012;2023-06-26T11:20:38;8.18;;;2.78;;
18580;SDS011;9420;50.876;7.012;2023-06-26T11:23:05;8.52;;;2.70;;
18580;SDS011;9420;50.876;7.012;2023-06-26T11:25:34;6.15;;;2.22;;
18580;SDS011;9420;50.876;7.012;2023-06-26T11:28:01;6.13;;;2.45;;
18580;SDS011;9420;50.876;7.012;2023-06-26T11:30:28;6.45;;;2.85;;
18580;SDS011;9420;50.876;7.012;2023-06-26T11:33:06;6.25;;;2.15;;
18580;SDS011;9420;50.876;7.012;2023-06-26T11:35:33;7.55;;;2.45;;
18580;SDS011;9420;50.876;7.012;2023-06-26T11:38:02;5.05;;;2.55;;
18580;SDS011;9420;50.876;7.012;2023-06-26T11:40:30;11.23;;;2.55;;
18580;SDS011;9420;50.876;7.012;2023-06-26T11:42:58;5.63;;;2.10;;
18580;SDS011;9420;50.876;7.012;2023-06-26T11:45:25;9.57;;;2.25;;
18580;SDS011;9420;50.876;7.012;2023-06-26T11:47:54;7.60;;;2.15;;
18580;SDS011;9420;50.876;7.012;2023-06-26T11:50:21;9.43;;;2.50;;
18580;SDS011;9420;50.876;7.012;2023-06-26T11:52:52;6.82;;;2.75;;
18580;SDS011;9420;50.876;7.012;2023-06-26T11:55:20;7.00;;;1.90;;
18580;SDS011;9420;50.876;7.012;2023-06-26T11:57:47;11.82;;;2.83;;
18580;SDS011;9420;50.876;7.012;2023-06-26T12:00:15;8.82;;;2.00;;
18580;SDS011;9420;50.876;7.012;2023-06-26T12:02:43;5.55;;;2.35;;
18580;SDS011;9420;50.876;7.012;2023-06-26T12:05:11;8.07;;;2.58;;
18580;SDS011;9420;50.876;7.012;2023-06-26T12:07:38;4.07;;;2.38;;
18580;SDS011;9420;50.876;7.012;2023-06-26T12:10:06;11.98;;;2.63;;
18580;SDS011;9420;50.876;7.012;2023-06-26T12:12:34;2.03;;;1.60;;
18580;SDS011;9420;50.876;7.012;2023-06-26T12:15:01;4.25;;;1.90;;
18580;SDS011;9420;50.876;7.012;2023-06-26T12:17:28;4.20;;;1.85;;
18580;SDS011;9420;50.876;7.012;2023-06-26T12:19:55;5.18;;;1.90;;
18580;SDS011;9420;50.876;7.012;2023-06-26T12:22:22;5.30;;;1.90;;
18580;SDS011;9420;50.876;7.012;2023-06-26T12:24:49;7.10;;;1.88;;
18580;SDS011;9420;50.876;7.012;2023-06-26T12:27:17;6.03;;;2.15;;
18580;SDS011;9420;50.876;7.012;2023-06-26T12:29:49;9.10;;;1.83;;
18580;SDS011;9420;50.876;7.012;2023-06-26T12:32:17;9.52;;;2.25;;
18580;SDS011;9420;50.876;7.012;2023-06-26T12:34:46;4.30;;;1.45;;
18580;SDS011;9420;50.876;7.012;2023-06-26T12:37:15;5.55;;;1.88;;
18580;SDS011;9420;50.876;7.012;2023-06-26T12:39:45;7.10;;;1.95;;
18580;SDS011;9420;50.876;7.012;2023-06-26T12:42:13;9.15;;;2.00;;
18580;SDS011;9420;50.876;7.012;2023-06-26T12:44:40;5.63;;;1.85;;
18580;SDS011;9420;50.876;7.012;2023-06-26T12:47:08;5.93;;;1.95;;
18580;SDS011;9420;50.876;7.012;2023-06-26T12:49:35;8.73;;;2.03;;
18580;SDS011;9420;50.876;7.012;2023-06-26T12:52:03;8.25;;;1.90;;
18580;SDS011;9420;50.876;7.012;2023-06-26T12:54:32;7.03;;;2.17;;
18580;SDS011;9420;50.876;7.012;2023-06-26T12:56:59;3.78;;;1.75;;
18580;SDS011;9420;50.876;7.012;2023-06-26T12:59:26;5.25;;;2.00;;
18580;SDS011;9420;50.876;7.012;2023-06-26T13:01:53;7.75;;;1.90;;
18580;SDS011;9420;50.876;7.012;2023-06-26T13:04:21;6.35;;;1.75;;
18580;SDS011;9420;50.876;7.012;2023-06-26T13:06:48;4.55;;;1.80;;
18580;SDS011;9420;50.876;7.012;2023-06-26T13:09:14;2.25;;;1.27;;
18580;SDS011;9420;50.876;7.012;2023-06-26T13:11:41;5.17;;;1.57;;
18580;SDS011;9420;50.876;7.012;2023-06-26T13:14:08;3.47;;;1.60;;
18580;SDS011;9420;50.876;7.012;2023-06-26T13:16:34;4.32;;;1.85;;
18580;SDS011;9420;50.876;7.012;2023-06-26T13:19:01;3.92;;;1.40;;
18580;SDS011;9420;50.876;7.012;2023-06-26T13:21:29;5.32;;;1.75;;
18580;SDS011;9420;50.876;7.012;2023-06-26T13:23:56;3.10;;;1.33;;
18580;SDS011;9420;50.876;7.012;2023-06-26T13:26:24;3.53;;;1.30;;
18580;SDS011;9420;50.876;7.012;2023-06-26T13:28:51;7.47;;;1.75;;
18580;SDS011;9420;50.876;7.012;2023-06-26T13:31:18;4.80;;;1.50;;
18580;SDS011;9420;50.876;7.012;2023-06-26T13:33:46;2.55;;;1.25;;
18580;SDS011;9420;50.876;7.012;2023-06-26T13:36:13;5.95;;;1.48;;
18580;SDS011;9420;50.876;7.012;2023-06-26T13:38:41;7.55;;;1.33;;
18580;SDS011;9420;50.876;7.012;2023-06-26T13:41:08;4.65;;;1.00;;
18580;SDS011;9420;50.876;7.012;2023-06-26T13:43:35;3.53;;;0.90;;
18580;SDS011;9420;50.876;7.012;2023-06-26T13:46:01;2.22;;;1.15;;
18580;SDS011;9420;50.876;7.012;2023-06-26T13:48:28;3.80;;;1.33;;
18580;SDS011;9420;50.876;7.012;2023-06-26T13:50:55;7.90;;;1.25;;
18580;SDS011;9420;50.876;7.012;2023-06-26T13:53:22;5.05;;;1.77;;
18580;SDS011;9420;50.876;7.012;2023-06-26T13:55:50;11.20;;;1.20;;
18580;SDS011;9420;50.876;7.012;2023-06-26T13:58:16;5.00;;;1.52;;
18580;SDS011;9420;50.876;7.012;2023-06-26T14:00:47;7.68;;;1.50;;
18580;SDS011;9420;50.876;7.012;2023-06-26T14:03:15;6.32;;;1.27;;
18580;SDS011;9420;50.876;7.012;2023-06-26T14:05:42;5.03;;;1.67;;
18580;SDS011;9420;50.876;7.012;2023-06-26T14:08:09;3.00;;;1.23;;
18580;SDS011;9420;50.876;7.012;2023-06-26T14:10:36;4.82;;;1.48;;
18580;SDS011;9420;50.876;7.012;2023-06-26T14:13:04;2.60;;;1.00;;
18580;SDS011;9420;50.876;7.012;2023-06-26T14:15:32;3.15;;;0.88;;
18580;SDS011;9420;50.876;7.012;2023-06-26T14:18:00;2.35;;;1.02;;
18580;SDS011;9420;50.876;7.012;2023-06-26T14:20:28;3.58;;;1.10;;
18580;SDS011;9420;50.876;7.012;2023-06-26T14:22:55;3.17;;;1.40;;
18580;SDS011;9420;50.876;7.012;2023-06-26T14:25:22;4.13;;;1.23;;
18580;SDS011;9420;50.876;7.012;2023-06-26T14:27:49;3.15;;;1.02;;
18580;SDS011;9420;50.876;7.012;2023-06-26T14:30:17;1.60;;;0.80;;
18580;SDS011;9420;50.876;7.012;2023-06-26T14:32:43;2.53;;;1.23;;
18580;SDS011;9420;50.876;7.012;2023-06-26T14:35:10;3.50;;;0.80;;
18580;SDS011;9420;50.876;7.012;2023-06-26T14:37:36;3.55;;;1.20;;
18580;SDS011;9420;50.876;7.012;2023-06-26T14:40:05;3.35;;;1.05;;
18580;SDS011;9420;50.876;7.012;2023-06-26T14:42:33;2.53;;;1.30;;
18580;SDS011;9420;50.876;7.012;2023-06-26T14:44:59;1.73;;;0.90;;
18580;SDS011;9420;50.876;7.012;2023-06-26T14:47:27;2.00;;;0.88;;
18580;SDS011;9420;50.876;7.012;2023-06-26T14:49:54;4.25;;;1.38;;
18580;SDS011;9420;50.876;7.012;2023-06-26T14:52:20;3.35;;;1.25;;
18580;SDS011;9420;50.876;7.012;2023-06-26T14:54:47;3.60;;;1.45;;
18580;SDS011;9420;50.876;7.012;2023-06-26T14:57:14;4.43;;;1.27;;
18580;SDS011;9420;50.876;7.012;2023-06-26T14:59:40;4.80;;;1.50;;
18580;SDS011;9420;50.876;7.012;2023-06-26T15:02:07;2.88;;;1.38;;
18580;SDS011;9420;50.876;7.012;2023-06-26T15:04:35;6.35;;;1.65;;
18580;SDS011;9420;50.876;7.012;2023-06-26T15:07:02;3.45;;;0.90;;